Time;durP1;ratioP1;P1;durP2;ratioP2;P2;SDS_P1;SDS_P2;PMS_P1;PMS_P2;Temp;Humidity;BMP_temperature;BMP_pressure;BME280_temperature;BME280_humidity;BME280_pressure;Samples;Min_cycle;Max_cycle;Signal;HPM_P1;HPM_P2
2021/07/10 00:01:57;;;;;;;9.05;7.97;;;20.90;70.40;;;;;;5095989;28;20044;-76
2021/07/10 00:04:24;;;;;;;10.23;8.77;;;20.90;70.50;;;;;;5095967;28;20451;-76
2021/07/10 00:06:49;;;;;;;9.90;8.65;;;20.90;70.50;;;;;;5095915;28;20048;-76
2021/07/10 00:09:15;;;;;;;10.85;9.65;;;20.90;70.60;;;;;;5095975;28;20044;-76
2021/07/10 00:11:41;;;;;;;11.98;10.18;;;20.90;70.60;;;;;;5096307;28;20047;-77
2021/07/10 00:14:07;;;;;;;9.93;8.88;;;20.90;70.60;;;;;;5095704;28;20123;-76
2021/07/10 00:16:33;;;;;;;11.40;9.32;;;20.90;70.60;;;;;;5096252;28;20119;-75
2021/07/10 00:18:59;;;;;;;10.88;8.88;;;20.90;70.70;;;;;;5095236;28;20134;-75
2021/07/10 00:21:25;;;;;;;9.23;8.27;;;20.90;70.70;;;;;;5095932;28;20439;-75
2021/07/10 00:23:51;;;;;;;11.07;8.57;;;20.90;70.80;;;;;;5095513;28;20040;-77
2021/07/10 00:26:17;;;;;;;11.32;8.68;;;20.90;70.70;;;;;;5095976;28;20048;-76
2021/07/10 00:28:43;;;;;;;9.52;8.20;;;20.90;70.80;;;;;;5095777;28;20047;-77
2021/07/10 00:31:09;;;;;;;9.20;7.93;;;20.90;70.80;;;;;;5095806;28;20048;-76
2021/07/10 00:33:35;;;;;;;11.45;9.40;;;20.90;70.80;;;;;;5095707;28;20047;-76
2021/07/10 00:36:01;;;;;;;11.15;9.40;;;20.80;70.70;;;;;;5095480;28;20126;-76
2021/07/10 00:38:27;;;;;;;10.85;9.75;;;20.90;70.80;;;;;;5095824;28;20126;-76
2021/07/10 00:40:53;;;;;;;10.63;9.52;;;20.80;70.70;;;;;;5095536;28;20128;-76
2021/07/10 00:43:19;;;;;;;13.85;10.52;;;20.80;70.70;;;;;;5095278;28;20051;-75
2021/07/10 00:45:46;;;;;;;10.88;8.75;;;20.80;70.70;;;;;;5095313;28;20032;-76
2021/07/10 00:48:12;;;;;;;11.02;9.43;;;20.80;70.70;;;;;;5095240;28;20141;-76
2021/07/10 00:50:37;;;;;;;11.52;9.30;;;20.80;70.80;;;;;;5077680;28;20048;-75
2021/07/10 00:53:03;;;;;;;10.68;8.88;;;20.80;70.80;;;;;;5094863;28;20414;-76
2021/07/10 00:55:29;;;;;;;9.93;8.57;;;20.80;70.80;;;;;;5095475;28;20054;-76
2021/07/10 00:57:55;;;;;;;9.65;8.00;;;20.80;70.80;;;;;;5095293;28;20052;-77
2021/07/10 01:00:23;;;;;;;12.02;8.88;;;20.80;70.80;;;;;;5095424;28;20051;-76
2021/07/10 01:02:51;;;;;;;11.00;8.75;;;20.80;70.80;;;;;;5095158;28;20067;-75
2021/07/10 01:05:22;;;;;;;11.00;9.70;;;20.80;70.80;;;;;;5095942;28;20055;-75
2021/07/10 01:07:49;;;;;;;13.10;10.15;;;20.80;70.80;;;;;;5094812;28;20511;-76
2021/07/10 01:10:15;;;;;;;14.57;9.25;;;20.80;70.80;;;;;;5095332;28;20109;-76
2021/07/10 01:12:45;;;;;;;8.80;7.90;;;20.80;70.90;;;;;;5095226;28;20043;-75
2021/07/10 01:15:14;;;;;;;9.70;8.00;;;20.70;70.90;;;;;;5095006;28;20123;-76
2021/07/10 01:17:42;;;;;;;12.57;9.48;;;20.80;71.00;;;;;;5095181;28;20508;-76
2021/07/10 01:20:10;;;;;;;10.63;8.95;;;20.70;70.90;;;;;;5094565;28;20048;-75
2021/07/10 01:22:37;;;;;;;11.13;9.15;;;20.70;70.90;;;;;;5094767;28;20052;-76
2021/07/10 01:25:06;;;;;;;11.32;9.75;;;20.80;70.90;;;;;;5077243;28;20043;-75
2021/07/10 01:27:32;;;;;;;13.18;9.60;;;20.80;70.90;;;;;;5095208;28;20043;-76
2021/07/10 01:30:01;;;;;;;11.15;9.73;;;20.70;70.90;;;;;;5095532;28;20056;-78
2021/07/10 01:32:27;;;;;;;9.65;8.18;;;20.80;71.00;;;;;;5095261;28;20500;-77
2021/07/10 01:34:53;;;;;;;10.85;9.40;;;20.70;70.90;;;;;;5094716;28;20461;-75
2021/07/10 01:37:19;;;;;;;11.23;9.20;;;20.80;70.90;;;;;;5095667;28;20044;-76
2021/07/10 01:39:45;;;;;;;11.23;9.88;;;20.70;70.90;;;;;;5094976;28;20419;-77
2021/07/10 01:42:11;;;;;;;11.77;9.25;;;20.70;70.90;;;;;;5094693;28;20052;-77
2021/07/10 01:44:38;;;;;;;11.07;9.43;;;20.70;70.90;;;;;;5095503;28;20106;-75
2021/07/10 01:47:05;;;;;;;11.32;9.63;;;20.70;70.90;;;;;;5094463;28;20044;-76
2021/07/10 01:49:31;;;;;;;10.65;8.57;;;20.70;70.90;;;;;;5095356;28;20040;-76
2021/07/10 01:51:58;;;;;;;10.18;8.95;;;20.70;70.90;;;;;;5095056;28;20491;-77
2021/07/10 01:54:24;;;;;;;11.35;9.65;;;20.70;70.90;;;;;;5095381;28;20044;-75
2021/07/10 01:56:51;;;;;;;11.18;9.75;;;20.70;70.90;;;;;;5094857;28;20462;-76
2021/07/10 01:59:17;;;;;;;11.75;9.65;;;20.70;70.90;;;;;;5094820;28;20044;-76
2021/07/10 02:01:51;;;;;;;11.93;9.90;;;20.70;70.90;;;;;;5094290;28;20044;-76
2021/07/10 02:04:18;;;;;;;;;;;20.60;70.80;;;;;;5095237;28;20044;-77
2021/07/10 02:06:45;;;;;;;13.07;9.88;;;20.70;70.70;;;;;;5094733;28;20275;-76
2021/07/10 02:09:11;;;;;;;12.82;10.98;;;20.60;70.80;;;;;;5094644;28;20036;-77
2021/07/10 02:11:38;;;;;;;12.38;10.90;;;20.70;70.90;;;;;;5094744;28;20044;-76
2021/07/10 02:14:05;;;;;;;11.32;10.13;;;20.60;70.90;;;;;;5094537;28;20451;-76
2021/07/10 02:16:31;;;;;;;10.98;9.73;;;20.70;70.90;;;;;;5094393;28;20123;-75
2021/07/10 02:18:58;;;;;;;12.15;10.07;;;20.60;70.90;;;;;;5077037;28;20135;-77
2021/07/10 02:21:24;;;;;;;12.57;9.88;;;20.60;70.90;;;;;;5097982;28;20040;-76
2021/07/10 02:23:51;;;;;;;10.57;8.98;;;20.60;70.90;;;;;;5098230;28;20430;-78
2021/07/10 02:26:18;;;;;;;11.57;9.60;;;20.60;71.00;;;;;;5098204;28;20143;-75
2021/07/10 02:28:44;;;;;;;11.00;9.45;;;20.60;71.10;;;;;;5097932;28;20116;-75
2021/07/10 02:31:11;;;;;;;11.45;9.82;;;20.60;71.10;;;;;;5098077;28;20466;-78
2021/07/10 02:33:37;;;;;;;12.27;9.88;;;20.60;71.20;;;;;;5098162;28;20128;-76
2021/07/10 02:36:03;;;;;;;11.73;9.25;;;20.60;71.20;;;;;;5098269;28;20045;-76
2021/07/10 02:38:29;;;;;;;13.23;11.43;;;20.60;71.20;;;;;;5097898;28;20447;-76
2021/07/10 02:40:55;;;;;;;13.57;10.35;;;20.60;71.10;;;;;;5097755;28;20046;-76
2021/07/10 02:43:21;;;;;;;12.43;10.45;;;20.60;71.00;;;;;;5097621;28;20040;-76
2021/07/10 02:45:47;;;;;;;13.95;10.50;;;20.60;71.00;;;;;;5097375;28;20040;-76
2021/07/10 02:48:13;;;;;;;11.88;9.57;;;20.50;70.90;;;;;;5097724;28;20093;-75
2021/07/10 02:50:40;;;;;;;12.15;10.05;;;20.60;71.00;;;;;;5097688;28;20455;-77
2021/07/10 02:53:05;;;;;;;14.02;10.50;;;20.50;71.00;;;;;;5097510;28;20414;-76
2021/07/10 02:55:33;;;;;;;15.25;11.80;;;20.50;71.00;;;;;;5097578;28;20040;-76
2021/07/10 02:57:59;;;;;;;12.80;10.73;;;20.50;70.90;;;;;;5097258;28;20040;-77
2021/07/10 03:00:27;;;;;;;14.45;10.25;;;20.50;70.90;;;;;;5097343;28;20459;-76
2021/07/10 03:02:54;;;;;;;14.52;11.13;;;20.50;70.90;;;;;;5097699;28;20055;-77
2021/07/10 03:05:20;;;;;;;15.07;11.00;;;20.60;70.90;;;;;;5098053;28;20059;-76
2021/07/10 03:07:46;;;;;;;12.88;9.98;;;20.50;70.90;;;;;;5097358;28;20447;-76
2021/07/10 03:10:16;;;;;;;12.27;9.48;;;20.50;70.90;;;;;;5096984;28;20403;-77
2021/07/10 03:12:42;;;;;;;13.70;9.98;;;20.50;71.00;;;;;;5097266;28;20115;-76
2021/07/10 03:15:09;;;;;;;12.38;9.32;;;20.50;71.10;;;;;;5096609;28;20075;-76
2021/07/10 03:17:36;;;;;;;11.15;9.30;;;20.40;71.10;;;;;;5096850;28;20127;-76
2021/07/10 03:20:04;;;;;;;12.25;9.93;;;20.40;71.10;;;;;;5097165;28;20068;-76
2021/07/10 03:22:30;;;;;;;10.93;8.73;;;20.40;71.10;;;;;;5097112;28;20417;-76
2021/07/10 03:24:56;;;;;;;12.55;9.27;;;20.50;71.20;;;;;;5097290;28;20048;-77
2021/07/10 03:27:22;;;;;;;10.85;8.77;;;20.40;71.10;;;;;;5096854;28;20447;-76
2021/07/10 03:29:48;;;;;;;10.93;8.35;;;20.40;71.00;;;;;;5096750;28;20044;-76
2021/07/10 03:32:13;;;;;;;10.88;8.95;;;20.40;71.20;;;;;;5097221;28;20047;-76
2021/07/10 03:34:39;;;;;;;11.15;9.10;;;20.40;71.30;;;;;;5096760;28;20412;-78
2021/07/10 03:37:05;;;;;;;11.75;9.60;;;20.40;71.30;;;;;;5096845;28;20071;-76
2021/07/10 03:39:31;;;;;;;11.70;9.57;;;20.40;71.30;;;;;;5096793;28;20056;-76
2021/07/10 03:41:56;;;;;;;10.40;8.98;;;20.40;71.30;;;;;;5096294;28;20040;-76
2021/07/10 03:44:22;;;;;;;9.90;8.45;;;20.40;71.20;;;;;;5096823;28;20439;-76
2021/07/10 03:46:48;;;;;;;9.75;7.85;;;20.30;71.10;;;;;;5096042;28;20048;-75
2021/07/10 03:49:14;;;;;;;10.90;8.57;;;20.30;71.20;;;;;;5096384;28;20140;-78
2021/07/10 03:51:41;;;;;;;11.82;9.05;;;20.40;71.20;;;;;;5096292;28;20040;-77
2021/07/10 03:54:07;;;;;;;11.00;8.02;;;20.30;71.10;;;;;;5096424;28;20055;-76
2021/07/10 03:56:39;;;;;;;10.30;8.07;;;20.30;71.10;;;;;;5096250;28;20051;-76
2021/07/10 03:59:05;;;;;;;10.95;8.55;;;20.30;71.10;;;;;;5096423;28;20052;-76
2021/07/10 04:01:33;;;;;;;12.10;9.50;;;20.30;71.20;;;;;;5095684;28;20040;-77
2021/07/10 04:04:01;;;;;;;10.73;9.43;;;20.40;71.20;;;;;;5096945;28;20048;-77
2021/07/10 04:06:27;;;;;;;12.77;9.60;;;20.40;71.20;;;;;;5096346;28;20420;-76
2021/07/10 04:08:53;;;;;;;12.10;9.77;;;20.30;71.10;;;;;;5096030;28;20059;-76
2021/07/10 04:11:19;;;;;;;10.32;8.85;;;20.40;71.20;;;;;;5096163;28;20040;-76
2021/07/10 04:13:45;;;;;;;11.25;8.30;;;20.40;71.20;;;;;;5095938;28;20081;-76
2021/07/10 04:16:11;;;;;;;11.57;9.20;;;20.40;71.20;;;;;;5095837;28;20069;-76
2021/07/10 04:18:37;;;;;;;13.57;9.75;;;20.40;71.20;;;;;;5095594;28;20135;-76
2021/07/10 04:21:04;;;;;;;11.52;9.05;;;20.40;71.20;;;;;;5096522;28;20119;-77
2021/07/10 04:23:31;;;;;;;12.05;8.85;;;20.40;71.20;;;;;;5095432;28;20048;-76
2021/07/10 04:25:57;;;;;;;10.98;8.68;;;20.40;71.20;;;;;;5095511;28;20044;-76
2021/07/10 04:28:22;;;;;;;11.05;9.13;;;20.40;71.20;;;;;;5095567;28;20358;-76
2021/07/10 04:30:49;;;;;;;12.88;10.07;;;20.40;71.30;;;;;;5095776;28;20446;-76
2021/07/10 04:33:14;;;;;;;10.52;9.43;;;20.40;71.20;;;;;;5095625;28;20109;-76
2021/07/10 04:35:40;;;;;;;13.25;10.27;;;20.40;71.30;;;;;;5095486;28;20478;-76
2021/07/10 04:38:06;;;;;;;13.18;10.30;;;20.40;71.30;;;;;;5096010;28;20063;-77
2021/07/10 04:40:32;;;;;;;12.35;10.68;;;20.40;71.30;;;;;;5095737;28;20052;-75
2021/07/10 04:42:58;;;;;;;12.98;9.48;;;20.40;71.30;;;;;;5095092;28;20423;-77
2021/07/10 04:45:24;;;;;;;13.48;11.38;;;20.40;71.30;;;;;;5095577;28;20060;-76
2021/07/10 04:47:50;;;;;;;14.95;11.77;;;20.40;71.20;;;;;;5095461;28;20075;-76
2021/07/10 04:50:16;;;;;;;12.60;9.65;;;20.40;71.20;;;;;;5095559;28;20376;-76
2021/07/10 04:52:42;;;;;;;11.20;9.68;;;20.40;71.30;;;;;;5095263;28;20043;-76
2021/07/10 04:55:10;;;;;;;15.13;10.82;;;20.40;71.30;;;;;;5096025;28;20462;-76
2021/07/10 04:57:36;;;;;;;11.27;9.95;;;20.40;71.40;;;;;;5095422;28;20052;-77
2021/07/10 05:00:05;;;;;;;10.75;8.55;;;20.40;71.30;;;;;;5095246;28;20040;-76
2021/07/10 05:02:31;;;;;;;16.38;12.32;;;20.40;71.40;;;;;;5094899;28;20443;-75
2021/07/10 05:04:56;;;;;;;23.60;19.20;;;20.50;71.20;;;;;;5094937;28;20039;-74
2021/07/10 05:07:22;;;;;;;23.85;18.77;;;20.40;70.50;;;;;;5094911;28;20105;-75
2021/07/10 05:09:48;;;;;;;24.23;19.88;;;20.40;70.40;;;;;;5094821;28;20035;-72
2021/07/10 05:12:16;;;;;;;24.50;19.85;;;20.30;70.60;;;;;;5095046;28;20052;-73
2021/07/10 05:14:42;;;;;;;25.02;19.60;;;20.30;70.80;;;;;;5095266;28;20382;-79
2021/07/10 05:17:08;;;;;;;28.73;20.38;;;20.20;70.90;;;;;;5095473;28;20044;-79
2021/07/10 05:19:34;;;;;;;26.25;20.50;;;20.20;71.00;;;;;;5094729;28;20131;-77
2021/07/10 05:22:00;;;;;;;25.60;20.02;;;20.10;70.90;;;;;;5094595;28;20123;-76
2021/07/10 05:24:25;;;;;;;25.55;19.85;;;20.10;70.80;;;;;;5094926;28;20430;-75
2021/07/10 05:26:51;;;;;;;25.45;20.35;;;20.10;70.80;;;;;;5095830;28;20051;-76
2021/07/10 05:29:17;;;;;;;26.27;19.98;;;20.10;70.90;;;;;;5094787;28;20107;-76
2021/07/10 05:31:43;;;;;;;26.35;19.85;;;20.00;70.90;;;;;;5095124;28;20036;-76
2021/07/10 05:34:09;;;;;;;24.23;20.38;;;20.00;70.70;;;;;;5094654;28;20048;-78
2021/07/10 05:36:34;;;;;;;27.55;20.67;;;20.00;70.70;;;;;;5094945;28;20078;-76
2021/07/10 05:39:00;;;;;;;26.73;21.17;;;19.90;70.80;;;;;;5094831;28;20078;-78
2021/07/10 05:41:26;;;;;;;23.45;19.27;;;19.90;70.90;;;;;;5077183;28;20421;-80
2021/07/10 05:43:52;;;;;;;30.05;20.45;;;19.90;71.10;;;;;;5076863;28;20048;-76
2021/07/10 05:46:18;;;;;;;23.23;18.45;;;19.80;71.60;;;;;;5095105;28;20048;-76
2021/07/10 05:48:43;;;;;;;23.02;18.17;;;19.80;72.10;;;;;;5094712;28;20040;-76
2021/07/10 05:51:10;;;;;;;25.27;17.45;;;19.90;72.30;;;;;;5095217;28;20078;-77
2021/07/10 05:53:36;;;;;;;24.17;16.73;;;19.90;72.40;;;;;;5095950;28;20100;-76
2021/07/10 05:56:02;;;;;;;22.80;16.42;;;20.00;72.50;;;;;;5099045;28;20040;-78
2021/07/10 05:58:28;;;;;;;21.73;16.27;;;20.00;72.50;;;;;;5098605;28;20344;-79
2021/07/10 06:00:53;;;;;;;23.88;16.27;;;20.10;72.70;;;;;;5098593;28;20213;-82
2021/07/10 06:03:19;;;;;;;21.23;14.52;;;20.10;72.90;;;;;;5098428;28;20062;-75
2021/07/10 06:05:45;;;;;;;19.88;14.55;;;20.10;72.80;;;;;;5098927;28;20062;-77
2021/07/10 06:08:11;;;;;;;20.17;13.32;;;20.20;72.70;;;;;;5098138;28;20105;-78
2021/07/10 06:10:41;;;;;;;17.15;13.18;;;20.20;72.60;;;;;;5097739;28;20372;-78
2021/07/10 06:13:07;;;;;;;15.85;13.40;;;20.30;72.10;;;;;;5097234;28;20062;-76
2021/07/10 06:15:36;;;;;;;19.08;13.90;;;20.30;70.60;;;;;;5092598;28;20122;-77
2021/07/10 06:18:02;;;;;;;18.13;13.82;;;20.30;69.80;;;;;;5094487;28;20486;-77
2021/07/10 06:20:28;;;;;;;13.35;11.95;;;20.30;69.30;;;;;;5094843;28;20130;-77
2021/07/10 06:22:54;;;;;;;14.95;11.65;;;20.20;68.90;;;;;;5096793;28;20115;-76
2021/07/10 06:25:20;;;;;;;17.15;15.07;;;20.20;68.70;;;;;;5097663;28;20063;-77
2021/07/10 06:27:48;;;;;;;17.02;14.63;;;20.20;68.70;;;;;;5098218;28;20097;-78
2021/07/10 06:30:15;;;;;;;20.13;15.73;;;20.20;69.00;;;;;;5098017;28;20119;-78
2021/07/10 06:32:42;;;;;;;21.50;17.30;;;20.20;69.00;;;;;;5097693;28;20111;-78
2021/07/10 06:35:08;;;;;;;21.10;17.30;;;20.20;69.30;;;;;;5097901;28;20050;-79
2021/07/10 06:37:34;;;;;;;20.75;16.95;;;20.20;69.40;;;;;;5097350;28;20052;-79
2021/07/10 06:40:05;;;;;;;19.70;16.98;;;20.20;69.20;;;;;;5097032;28;20502;-81
2021/07/10 06:42:31;;;;;;;19.17;15.95;;;20.20;69.10;;;;;;5077615;28;20097;-80
2021/07/10 06:44:57;;;;;;;19.58;15.90;;;20.10;69.00;;;;;;5084134;28;20451;-81
2021/07/10 06:47:23;;;;;;;17.90;15.30;;;20.10;69.10;;;;;;5097503;28;20052;-82
2021/07/10 06:49:52;;;;;;;18.58;15.05;;;20.20;69.30;;;;;;5075882;28;20500;-79
2021/07/10 06:52:18;;;;;;;17.73;14.77;;;20.20;69.40;;;;;;5088096;28;20032;-80
2021/07/10 06:54:45;;;;;;;17.77;13.40;;;20.20;69.50;;;;;;5085832;28;20465;-80
2021/07/10 06:57:11;;;;;;;21.45;14.80;;;20.20;69.40;;;;;;5097627;28;20039;-78
2021/07/10 06:59:36;;;;;;;16.10;12.82;;;20.30;69.40;;;;;;5097439;28;20116;-75
2021/07/10 07:02:02;;;;;;;15.60;12.95;;;20.30;69.40;;;;;;5097211;28;20040;-80
2021/07/10 07:04:28;;;;;;;14.30;10.55;;;20.30;69.40;;;;;;5097289;28;20055;-78
2021/07/10 07:06:54;;;;;;;14.55;11.80;;;20.40;69.30;;;;;;5097008;28;20048;-78
2021/07/10 07:09:20;;;;;;;13.98;11.80;;;20.40;69.30;;;;;;5097361;28;20044;-79
2021/07/10 07:11:45;;;;;;;13.68;11.40;;;20.40;69.40;;;;;;5097199;28;20051;-81
2021/07/10 07:14:11;;;;;;;15.43;12.35;;;20.40;69.60;;;;;;5097044;28;20050;-79
2021/07/10 07:16:37;;;;;;;16.27;11.85;;;20.40;69.60;;;;;;5096794;28;20443;-79
2021/07/10 07:19:03;;;;;;;14.48;11.85;;;20.40;69.70;;;;;;5096889;28;20056;-79
2021/07/10 07:21:29;;;;;;;14.65;11.50;;;20.40;69.60;;;;;;5097156;28;20052;-80
2021/07/10 07:23:57;;;;;;;13.02;11.10;;;20.40;69.70;;;;;;5097322;28;20048;-79
2021/07/10 07:26:23;;;;;;;13.60;10.93;;;20.50;69.70;;;;;;5097415;28;20040;-80
2021/07/10 07:28:49;;;;;;;12.10;10.15;;;20.50;69.80;;;;;;5097017;28;20048;-80
2021/07/10 07:31:15;;;;;;;15.02;10.52;;;20.50;69.70;;;;;;5096912;28;20052;-80
2021/07/10 07:33:41;;;;;;;13.27;9.93;;;20.50;69.70;;;;;;5096942;28;20101;-78
2021/07/10 07:36:08;;;;;;;13.40;9.05;;;20.60;69.80;;;;;;5097165;28;20048;-80
2021/07/10 07:38:36;;;;;;;12.70;10.07;;;20.60;69.80;;;;;;5096762;28;20101;-79
2021/07/10 07:41:04;;;;;;;14.50;10.73;;;20.60;69.70;;;;;;5096807;28;20044;-80
2021/07/10 07:43:30;;;;;;;13.90;11.23;;;20.60;69.50;;;;;;5095611;28;20039;-79
2021/07/10 07:45:56;;;;;;;15.07;11.30;;;20.60;69.50;;;;;;5096757;28;20039;-84
2021/07/10 07:48:22;;;;;;;15.30;11.23;;;20.60;69.50;;;;;;5095990;28;20067;-74
2021/07/10 07:50:48;;;;;;;14.15;10.57;;;20.60;69.70;;;;;;5096909;28;20344;-80
2021/07/10 07:53:16;;;;;;;19.48;10.68;;;20.60;69.70;;;;;;5096525;28;20055;-79
2021/07/10 07:55:46;;;;;;;18.08;12.68;;;20.60;69.60;;;;;;5096499;28;20048;-83
2021/07/10 07:58:12;;;;;;;15.73;11.43;;;20.60;69.50;;;;;;5096013;28;20146;-77
2021/07/10 08:00:38;;;;;;;14.68;9.45;;;20.60;69.60;;;;;;5096254;28;20036;-80
2021/07/10 08:03:04;;;;;;;12.60;9.50;;;20.60;69.80;;;;;;5078046;28;20058;-78
2021/07/10 08:05:30;;;;;;;17.50;9.70;;;20.70;70.00;;;;;;5096525;28;20123;-77
2021/07/10 08:07:56;;;;;;;12.32;9.70;;;20.70;70.00;;;;;;5096650;28;20048;-81
2021/07/10 08:10:23;;;;;;;17.13;10.98;;;20.70;70.10;;;;;;5096322;28;20090;-82
2021/07/10 08:12:53;;;;;;;17.35;10.90;;;20.70;69.70;;;;;;5095923;28;20040;-79
2021/07/10 08:15:21;;;;;;;18.02;13.20;;;20.80;69.50;;;;;;5096661;28;20070;-78
2021/07/10 08:17:49;;;;;;;18.38;12.82;;;20.80;69.10;;;;;;5095644;28;20050;-77
2021/07/10 08:20:16;;;;;;;13.95;10.43;;;20.70;69.30;;;;;;5096081;28;20094;-76
2021/07/10 08:22:45;;;;;;;19.60;11.32;;;20.70;69.60;;;;;;5095759;28;20119;-80
2021/07/10 08:25:13;;;;;;;16.67;10.63;;;20.70;69.80;;;;;;5095887;28;20032;-78
2021/07/10 08:27:41;;;;;;;14.43;9.93;;;20.80;69.90;;;;;;5095723;28;20040;-76
2021/07/10 08:30:08;;;;;;;18.98;10.60;;;20.80;70.10;;;;;;5095878;28;20054;-80
2021/07/10 08:32:34;;;;;;;14.57;9.45;;;20.80;70.30;;;;;;5095828;28;20111;-77
2021/07/10 08:35:01;;;;;;;13.57;8.50;;;20.80;70.20;;;;;;5078004;28;20047;-74
2021/07/10 08:37:27;;;;;;;16.48;8.82;;;20.90;70.60;;;;;;5095397;28;20048;-73
2021/07/10 08:39:52;;;;;;;16.23;9.48;;;20.90;70.60;;;;;;5095565;28;20085;-77
2021/07/10 08:42:18;;;;;;;17.50;9.52;;;20.90;70.70;;;;;;5095838;28;20469;-76
2021/07/10 08:44:51;;;;;;;14.05;8.30;;;20.90;70.50;;;;;;5095693;28;20447;-77
2021/07/10 08:47:17;;;;;;;13.13;8.30;;;20.90;70.60;;;;;;5095467;28;20122;-76
2021/07/10 08:49:44;;;;;;;14.63;8.10;;;20.90;70.60;;;;;;5095747;28;20055;-78
2021/07/10 08:52:11;;;;;;;17.33;8.18;;;20.90;70.50;;;;;;5095460;28;20383;-76
2021/07/10 08:54:37;;;;;;;13.60;8.30;;;21.00;71.00;;;;;;5095306;28;20076;-77
2021/07/10 08:57:05;;;;;;;14.55;7.45;;;21.00;70.90;;;;;;5095475;28;20040;-82
2021/07/10 08:59:31;;;;;;;13.82;7.72;;;21.00;70.80;;;;;;5095663;28;20118;-79
2021/07/10 09:01:57;;;;;;;17.25;10.10;;;21.00;70.80;;;;;;5095075;28;20048;-78
2021/07/10 09:04:24;;;;;;;13.82;10.00;;;21.00;70.40;;;;;;5077844;28;20124;-78
2021/07/10 09:06:51;;;;;;;18.95;9.45;;;21.10;70.40;;;;;;5095843;28;20048;-76
2021/07/10 09:09:17;;;;;;;15.30;8.25;;;21.10;70.40;;;;;;5077880;28;20068;-76
2021/07/10 09:12:01;;;;;;;17.25;8.30;;;21.10;70.50;;;;;;5095163;28;20400;-73
2021/07/10 09:14:32;;;;;;;13.32;8.18;;;21.10;70.70;;;;;;5095291;28;20070;-76
2021/07/10 09:17:23;;;;;;;15.27;9.20;;;21.10;70.60;;;;;;5095559;28;20044;-74
2021/07/10 09:19:54;;;;;;;11.23;8.00;;;21.10;71.20;;;;;;5095351;28;20052;-76
2021/07/10 09:22:30;;;;;;;12.05;7.57;;;21.10;70.70;;;;;;5094893;28;20450;-76
2021/07/10 09:24:58;;;;;;;11.88;7.75;;;21.10;70.80;;;;;;5095829;28;20078;-75
2021/07/10 09:27:24;;;;;;;16.15;7.93;;;21.20;70.90;;;;;;5095335;28;20041;-73
2021/07/10 09:29:50;;;;;;;16.38;9.82;;;21.10;70.90;;;;;;5098596;28;20101;-74
2021/07/10 09:32:24;;;;;;;12.20;8.70;;;21.10;71.10;;;;;;5099184;28;20051;-75
2021/07/10 09:34:53;;;;;;;13.57;8.20;;;21.20;71.10;;;;;;5098883;28;20039;-75
2021/07/10 09:37:20;;;;;;;14.60;8.55;;;21.20;71.10;;;;;;5099024;28;20052;-75
2021/07/10 09:40:06;;;;;;;12.57;8.00;;;21.20;71.10;;;;;;5099052;28;20040;-76
2021/07/10 09:42:34;;;;;;;15.43;7.35;;;21.20;71.10;;;;;;5098964;28;20109;-75
2021/07/10 09:45:00;;;;;;;11.93;8.35;;;21.20;71.10;;;;;;5099242;28;20055;-76
2021/07/10 09:47:32;;;;;;;10.05;6.97;;;21.20;71.00;;;;;;5096232;28;20426;-76
2021/07/10 09:50:00;;;;;;;9.95;6.90;;;21.20;71.00;;;;;;5098751;28;20135;-75
2021/07/10 09:52:30;;;;;;;14.00;7.57;;;21.20;71.60;;;;;;5099221;28;20056;-76
2021/07/10 09:55:11;;;;;;;13.88;7.15;;;21.30;71.00;;;;;;5098682;28;20109;-76
2021/07/10 09:57:40;;;;;;;10.70;6.68;;;21.20;70.90;;;;;;5098918;28;20028;-76
2021/07/10 10:00:13;;;;;;;12.57;7.18;;;21.30;70.90;;;;;;5098389;28;20040;-76
2021/07/10 10:02:42;;;;;;;9.77;7.40;;;21.30;70.80;;;;;;5092777;28;20063;-76
2021/07/10 10:05:11;;;;;;;9.15;6.35;;;21.30;70.80;;;;;;5078133;28;20129;-75
2021/07/10 10:07:46;;;;;;;11.65;7.32;;;21.30;70.70;;;;;;5078571;28;20041;-76
2021/07/10 10:10:25;;;;;;;9.93;6.30;;;21.30;70.70;;;;;;5078379;28;20044;-76
2021/07/10 10:13:08;;;;;;;8.98;6.20;;;21.30;70.60;;;;;;5078089;28;20032;-76
2021/07/10 10:15:48;;;;;;;11.90;6.80;;;21.30;70.60;;;;;;5079377;28;20431;-77
2021/07/10 10:18:17;;;;;;;9.60;6.03;;;21.30;70.60;;;;;;5077688;28;20067;-76
2021/07/10 10:20:44;;;;;;;7.63;6.30;;;21.30;70.50;;;;;;5077846;28;20044;-76
2021/07/10 10:23:11;;;;;;;10.93;6.78;;;21.30;70.50;;;;;;5091755;28;20115;-76
2021/07/10 10:25:39;;;;;;;8.88;6.28;;;21.30;70.50;;;;;;5091782;28;20075;-75
2021/07/10 10:28:07;;;;;;;10.27;7.35;;;21.30;70.40;;;;;;5077906;28;20040;-76
2021/07/10 10:30:34;;;;;;;9.32;6.00;;;21.30;70.50;;;;;;5085949;28;20035;-75
2021/07/10 10:33:00;;;;;;;9.35;6.07;;;21.30;70.50;;;;;;5097884;28;20055;-76
2021/07/10 10:35:26;;;;;;;11.48;6.20;;;21.30;70.40;;;;;;5097522;28;20055;-76
2021/07/10 10:37:52;;;;;;;9.57;6.63;;;21.30;70.40;;;;;;5098760;28;20044;-76
2021/07/10 10:40:23;;;;;;;11.45;6.32;;;21.30;70.40;;;;;;5083745;28;20049;-76
2021/07/10 10:42:55;;;;;;;7.65;6.43;;;21.30;70.40;;;;;;5077670;28;20052;-76
2021/07/10 10:45:30;;;;;;;8.63;6.25;;;21.40;70.40;;;;;;5077666;28;20463;-76
2021/07/10 10:47:56;;;;;;;8.75;6.30;;;21.40;70.50;;;;;;5077660;28;20455;-76
2021/07/10 10:50:29;;;;;;;10.93;5.68;;;21.40;70.50;;;;;;5077410;28;20055;-75
2021/07/10 10:52:58;;;;;;;8.95;5.68;;;21.30;70.40;;;;;;5077826;28;20071;-75
2021/07/10 10:55:30;;;;;;;9.93;6.28;;;21.40;70.40;;;;;;5065541;28;20073;-75
2021/07/10 10:57:56;;;;;;;7.50;5.30;;;21.40;70.40;;;;;;5097579;28;20036;-75
2021/07/10 11:00:32;;;;;;;7.10;5.55;;;21.40;70.40;;;;;;5095678;28;20047;-73
2021/07/10 11:03:07;;;;;;;10.07;6.25;;;21.40;70.40;;;;;;5097845;28;20044;-73
2021/07/10 11:05:33;;;;;;;8.77;5.35;;;21.40;70.40;;;;;;5097481;28;20059;-73
2021/07/10 11:08:17;;;;;;;6.68;5.00;;;21.40;70.40;;;;;;5097278;28;20044;-73
2021/07/10 11:10:46;;;;;;;10.77;5.95;;;21.40;70.40;;;;;;5097396;28;20043;-73
2021/07/10 11:13:33;;;;;;;8.48;5.80;;;21.40;70.40;;;;;;5097517;28;20048;-74
2021/07/10 11:16:19;;;;;;;7.25;5.45;;;21.40;70.40;;;;;;5097405;28;20048;-74
2021/07/10 11:19:07;;;;;;;6.85;5.35;;;21.40;70.40;;;;;;5097398;28;20060;-74
2021/07/10 11:21:39;;;;;;;6.22;5.35;;;21.40;70.40;;;;;;5085648;28;20451;-74
2021/07/10 11:24:19;;;;;;;7.07;5.65;;;21.40;70.40;;;;;;5097282;28;20040;-74
2021/07/10 11:26:55;;;;;;;6.50;4.95;;;21.40;70.40;;;;;;5097060;28;20118;-76
2021/07/10 11:29:33;;;;;;;7.78;5.15;;;21.40;70.50;;;;;;5096801;28;20332;-74
2021/07/10 11:32:11;;;;;;;9.55;5.68;;;21.40;70.70;;;;;;5096482;28;20047;-79
2021/07/10 11:34:37;;;;;;;8.90;5.70;;;21.40;71.00;;;;;;5097340;28;20036;-75
2021/07/10 11:37:29;;;;;;;14.82;6.50;;;21.40;72.20;;;;;;5093661;28;20059;-75
2021/07/10 11:39:56;;;;;;;11.48;6.43;;;21.50;71.60;;;;;;5096432;28;20052;-76
2021/07/10 11:42:28;;;;;;;15.90;7.15;;;21.40;71.60;;;;;;5096527;28;20125;-75
2021/07/10 11:45:11;;;;;;;12.10;6.18;;;21.40;72.00;;;;;;5096850;28;20418;-74
2021/07/10 11:47:50;;;;;;;10.07;5.25;;;21.40;72.70;;;;;;5096792;28;20044;-74
2021/07/10 11:50:28;;;;;;;20.00;6.10;;;21.40;72.50;;;;;;5096039;28;20386;-75
2021/07/10 11:53:06;;;;;;;10.55;5.15;;;21.40;73.00;;;;;;5096147;28;20194;-75
2021/07/10 11:55:35;;;;;;;15.48;5.53;;;21.40;72.80;;;;;;5096476;28;20044;-72
2021/07/10 11:58:03;;;;;;;9.30;4.95;;;21.50;72.80;;;;;;5097075;28;20074;-75
2021/07/10 12:00:29;;;;;;;13.93;5.60;;;21.50;72.60;;;;;;5096366;28;20164;-75
2021/07/10 12:02:55;;;;;;;48.15;8.23;;;21.50;72.90;;;;;;5097207;28;20036;-74
2021/07/10 12:05:23;;;;;;;35.88;7.43;;;21.50;73.00;;;;;;5095915;28;20043;-74
2021/07/10 12:07:58;;;;;;;24.38;6.80;;;21.50;73.90;;;;;;5096444;28;20036;-74
2021/07/10 12:10:25;;;;;;;25.38;6.88;;;21.50;74.40;;;;;;5096154;28;20044;-75
2021/07/10 12:12:51;;;;;;;22.02;6.35;;;21.50;74.30;;;;;;5095344;28;20044;-75
2021/07/10 12:15:28;;;;;;;19.85;6.00;;;21.60;73.90;;;;;;5093954;28;20344;-74
2021/07/10 12:17:56;;;;;;;22.30;5.90;;;21.50;73.70;;;;;;5093955;28;20052;-73
2021/07/10 12:20:26;;;;;;;16.85;6.47;;;21.60;73.80;;;;;;5096088;28;20039;-74
2021/07/10 12:22:53;;;;;;;31.88;6.93;;;21.50;73.50;;;;;;5095879;28;20044;-73
2021/07/10 12:25:21;;;;;;;45.40;7.47;;;21.50;73.70;;;;;;5095863;28;20048;-73
2021/07/10 12:27:52;;;;;;;22.73;5.35;;;21.60;73.60;;;;;;5095561;28;20182;-74
2021/07/10 12:30:18;;;;;;;27.65;7.15;;;21.50;74.30;;;;;;5094396;28;20056;-72
2021/07/10 12:32:43;;;;;;;31.92;6.20;;;21.60;73.80;;;;;;5095120;28;20067;-74
2021/07/10 12:35:09;;;;;;;16.83;6.10;;;21.60;73.60;;;;;;5096602;28;20350;-75
2021/07/10 12:37:35;;;;;;;25.02;6.28;;;21.60;74.00;;;;;;5095164;28;20044;-74
2021/07/10 12:40:08;;;;;;;16.77;7.75;;;21.60;74.20;;;;;;5095111;28;20047;-75